Glendive, MT (59330)

11:53 PM MST on February 06, 2016 (GMT -0700)
heights | | Change Station
CLOSE
Current Station
Personal Weather Station
Location: Glendive, MT
Elevation: 2077 ft
Nearby Weather Stations
Active Advisory: High Wind Warning Active Notice: Public Information Statement

Elev 2077 ft 47.12 °N, 104.71 °W | Updated 4 minutes ago

Mostly Cloudy
Mostly Cloudy
33.8 °F
Feels Like 29 °F
N
5.8
Wind Variable Wind from West

Today
High -- | Low -- °F
--% Chance of Precip.
Yesterday
High -- | Low -- °F
Precip. -- in
Pressure 29.97 in
Visibility 10.0 miles
Clouds Mostly Cloudy 10000 ft
Overcast 11000 ft
Windchill 29 °F
Dew Point 30 °F
Humidity 85%
Rainfall 0.00 in
Snow Depth Not available.
7:17 AM 5:08 PM
Waning Crescent, 2% visible
METAR KGDV 070635Z AUTO 26017G22KT 10SM BKN100 OVC110 00/M02 A2997 RMK AO1
Pressure 29.97 in
Visibility 10.0 miles
Clouds Mostly Cloudy 10000 ft
Overcast 11000 ft
Windchill 29 °F
Dew Point 30 °F
Humidity 85%
Rainfall 0.00 in
Snow Depth Not available.
7:17 AM 5:08 PM
Waning Crescent, 2% visible
METAR KGDV 070635Z AUTO 26017G22KT 10SM BKN100 OVC110 00/M02 A2997 RMK AO1

10-Day Weather Forecast

Almanac

Astronomy

Feb. 06, 2016 Rise Set
Actual Time
Civil Twilight
Nautical Twilight
Astronomical Twilight
Moon
Length of Visible Light
Length of Day
Tomorrow will be .
, % of the Moon is Illuminated

Today's Extremes

State Highs State Lows

Community

WunderPhotos

Upload Photos

1,891,174 photos uploaded!

WunderBlog® & News

Nearby

Air Quality

  Air Quality AQ Index Pollutant
Not available.

Snow Depth

Station Depth Elevation

Earthquake Activity

City Distance Mag. Time & Date
Minimum magnitude displayed is 2.5.

Coastal Water Temperatures

Place Temperature

Stations

Nearby Weather Stations

Station Location Temp. Windchill Dew Point Humidity Wind Precip. Elev Updated Type
                   

Watches & Warnings

High Wind Warning
Issued: 10:50 PM MST Feb. 6, 2016 – National Weather Service

... High Wind Warning remains in effect until 5 PM MST Sunday...

* winds... northwest 30 to 40 mph with gusts up to 55 mph.

* Timing... tonight through Sunday... with winds slightly
diminishing overnight.

* Impacts... the strong winds may make travel difficult
especially for high profile vehicles on north-south oriented
roads.

Precautionary/preparedness actions...

A High Wind Warning means a hazardous high wind event is expected
or occurring. Sustained wind speeds of at least 40 mph or gusts
of 58 mph or more can lead to property damage.